createdAt,value
2017-12-20T00:00:50.522Z,37.80
2017-12-20T00:03:18.884Z,36.83
2017-12-20T00:05:48.014Z,41.73
2017-12-20T00:08:15.597Z,35.60
2017-12-20T00:10:43.181Z,41.17
2017-12-20T00:13:10.810Z,43.13
2017-12-20T00:15:38.393Z,40.03
2017-12-20T00:18:06.018Z,45.90
2017-12-20T00:20:34.386Z,53.20
2017-12-20T00:23:02.141Z,34.50
2017-12-20T00:25:30.481Z,36.43
2017-12-20T00:27:58.070Z,41.50
2017-12-20T00:30:25.697Z,41.10
2017-12-20T00:32:53.290Z,38.00
2017-12-20T00:35:20.913Z,39.90
2017-12-20T00:37:48.491Z,40.40
2017-12-20T00:40:16.061Z,40.40
2017-12-20T00:42:43.700Z,41.20
2017-12-20T00:45:11.293Z,43.90
2017-12-20T00:47:39.681Z,38.80
2017-12-20T00:50:07.494Z,39.87
2017-12-20T00:52:35.486Z,36.77
2017-12-20T00:55:03.074Z,36.63
2017-12-20T00:57:30.676Z,38.37
2017-12-20T00:59:58.301Z,42.83
2017-12-20T01:02:26.630Z,44.57
2017-12-20T01:04:54.254Z,35.37
2017-12-20T01:07:21.833Z,52.23
2017-12-20T01:09:49.770Z,42.20
2017-12-20T01:12:18.114Z,41.23
2017-12-20T01:14:45.919Z,40.63
2017-12-20T01:17:14.567Z,37.67
2017-12-20T01:19:42.162Z,44.13
2017-12-20T01:22:09.786Z,40.27
2017-12-20T01:24:37.503Z,39.67
2017-12-20T01:27:05.422Z,45.57
2017-12-20T01:29:33.011Z,37.10
2017-12-20T01:32:00.584Z,43.00
2017-12-20T01:34:28.385Z,45.10
2017-12-20T01:36:55.974Z,43.00
2017-12-20T01:39:23.561Z,38.33
2017-12-20T01:41:51.157Z,29.57
2017-12-20T01:44:19.033Z,34.07
2017-12-20T01:46:46.809Z,25.13
2017-12-20T01:49:14.382Z,33.43
2017-12-20T01:51:42.226Z,27.90
2017-12-20T01:54:09.819Z,24.93
2017-12-20T01:56:37.654Z,25.40
2017-12-20T01:59:05.262Z,27.50
2017-12-20T02:01:33.673Z,20.53
2017-12-20T02:04:01.257Z,23.60
2017-12-20T02:06:29.207Z,24.00
2017-12-20T02:08:56.802Z,22.67
2017-12-20T02:11:24.398Z,33.30
2017-12-20T02:13:52.012Z,26.53
2017-12-20T02:16:19.639Z,26.40
2017-12-20T02:18:48.052Z,23.17
2017-12-20T02:21:15.637Z,30.10
2017-12-20T02:23:44.126Z,24.43
2017-12-20T02:26:12.502Z,44.50
2017-12-20T02:28:40.077Z,49.33
2017-12-20T02:31:08.450Z,33.17
2017-12-20T02:33:36.015Z,40.10
2017-12-20T02:36:03.677Z,25.40
2017-12-20T02:38:39.939Z,25.67
2017-12-20T02:41:07.794Z,48.83
2017-12-20T02:43:37.014Z,91.10
2017-12-20T02:46:04.817Z,142.43
2017-12-20T02:48:32.419Z,64.77
2017-12-20T02:51:00.753Z,86.80
2017-12-20T02:53:28.374Z,100.67
2017-12-20T02:55:55.942Z,67.47
2017-12-20T02:58:23.842Z,33.33
2017-12-20T03:00:51.405Z,20.77
2017-12-20T03:03:19.682Z,19.10
2017-12-20T03:05:48.124Z,18.73
2017-12-20T03:08:15.689Z,15.87
2017-12-20T03:10:43.579Z,15.10
2017-12-20T03:13:11.157Z,19.70
2017-12-20T03:15:38.719Z,16.00
2017-12-20T03:18:06.343Z,16.90
2017-12-20T03:20:33.922Z,18.30
2017-12-20T03:23:01.547Z,14.73
2017-12-20T03:25:29.121Z,16.33
2017-12-20T03:27:57.010Z,20.70
2017-12-20T03:30:25.455Z,14.00
2017-12-20T03:32:53.026Z,18.27
2017-12-20T03:35:20.805Z,20.87
2017-12-20T03:37:48.391Z,15.53
2017-12-20T03:40:16.014Z,18.10
2017-12-20T03:42:43.613Z,16.37
2017-12-20T03:45:11.682Z,16.47
2017-12-20T03:47:39.260Z,17.83
2017-12-20T03:50:06.844Z,14.77
2017-12-20T03:52:34.655Z,15.50
2017-12-20T03:55:02.242Z,14.17
2017-12-20T03:57:30.678Z,18.80
2017-12-20T03:59:58.285Z,13.40
2017-12-20T04:02:27.142Z,15.50
2017-12-20T04:04:54.726Z,17.70
2017-12-20T04:07:22.310Z,19.30
2017-12-20T04:09:49.955Z,22.27
2017-12-20T04:12:18.284Z,17.63
2017-12-20T04:14:45.898Z,15.17
2017-12-20T04:17:14.254Z,12.00
2017-12-20T04:19:41.878Z,17.90
2017-12-20T04:22:09.487Z,12.23
2017-12-20T04:24:38.478Z,13.20
2017-12-20T04:27:06.816Z,14.50
2017-12-20T04:29:34.398Z,12.50
2017-12-20T04:32:02.010Z,13.63
2017-12-20T04:34:29.613Z,10.60
2017-12-20T04:36:57.255Z,11.20
2017-12-20T04:39:24.870Z,14.37
2017-12-20T04:41:52.786Z,14.63
2017-12-20T04:44:20.445Z,13.60
2017-12-20T04:46:48.037Z,11.90
2017-12-20T04:49:15.671Z,21.50
2017-12-20T04:51:43.253Z,16.73
2017-12-20T04:54:10.913Z,11.87
2017-12-20T04:56:38.488Z,13.03
2017-12-20T04:59:06.118Z,12.13
2017-12-20T05:01:33.704Z,16.83
2017-12-20T05:04:01.759Z,17.57
2017-12-20T05:06:29.325Z,17.77
2017-12-20T05:08:58.429Z,15.30
2017-12-20T05:11:26.050Z,16.93
2017-12-20T05:13:53.642Z,22.63
2017-12-20T05:16:21.254Z,14.23
2017-12-20T05:18:48.853Z,20.10
2017-12-20T05:21:16.494Z,16.53
2017-12-20T05:23:44.142Z,24.50
2017-12-20T05:26:12.535Z,22.93
2017-12-20T05:28:40.136Z,33.00
2017-12-20T05:31:07.719Z,34.33
2017-12-20T05:33:35.332Z,33.90
2017-12-20T05:36:02.930Z,26.20
2017-12-20T05:38:31.358Z,20.37
2017-12-20T05:40:58.966Z,17.63
2017-12-20T05:43:26.891Z,18.67
2017-12-20T05:45:54.473Z,21.83
2017-12-20T05:48:23.553Z,15.90
2017-12-20T05:50:51.186Z,16.20
2017-12-20T05:53:18.763Z,18.80
2017-12-20T05:55:46.627Z,13.73
2017-12-20T05:58:14.206Z,20.73
2017-12-20T06:00:42.478Z,19.30
2017-12-20T06:03:10.094Z,13.00
2017-12-20T06:05:38.932Z,17.17
2017-12-20T06:08:06.499Z,16.97
2017-12-20T06:10:34.093Z,15.03
2017-12-20T06:13:02.480Z,21.53
2017-12-20T06:15:30.061Z,17.30
2017-12-20T06:17:57.709Z,23.13
2017-12-20T06:20:25.281Z,27.77
2017-12-20T06:22:52.888Z,22.73
2017-12-20T06:25:20.558Z,26.83
2017-12-20T06:27:48.487Z,32.43
2017-12-20T06:30:16.085Z,30.00
2017-12-20T06:32:43.685Z,39.60
2017-12-20T06:35:11.346Z,36.77
2017-12-20T06:37:38.952Z,35.17
2017-12-20T06:40:06.606Z,40.27
2017-12-20T06:42:34.193Z,40.93
2017-12-20T06:45:02.132Z,36.00
2017-12-20T06:47:29.725Z,30.47
2017-12-20T06:49:57.315Z,33.10
2017-12-20T06:52:24.978Z,32.37
2017-12-20T06:54:52.571Z,46.63
2017-12-20T06:57:20.210Z,72.03
2017-12-20T06:59:47.810Z,48.80
2017-12-20T07:02:15.446Z,36.33
2017-12-20T07:04:43.031Z,38.40
2017-12-20T07:07:10.902Z,36.30
2017-12-20T07:09:38.516Z,38.47
2017-12-20T07:12:06.091Z,43.07
2017-12-20T07:14:33.732Z,35.10
2017-12-20T07:17:01.327Z,30.33
2017-12-20T07:19:28.950Z,28.90
2017-12-20T07:21:56.562Z,24.17
2017-12-20T07:24:24.212Z,26.57
2017-12-20T07:26:51.814Z,25.83
2017-12-20T07:29:19.737Z,44.93
2017-12-20T07:31:47.334Z,30.40
2017-12-20T07:34:15.753Z,28.93
2017-12-20T07:36:43.378Z,33.40
2017-12-20T07:39:10.962Z,26.77
2017-12-20T07:41:38.597Z,22.63
2017-12-20T07:44:06.179Z,31.43
2017-12-20T07:46:34.074Z,31.03
2017-12-20T07:49:01.781Z,26.40
2017-12-20T07:51:30.149Z,21.40
2017-12-20T07:53:57.772Z,36.73
2017-12-20T07:56:25.325Z,39.33
2017-12-20T07:58:52.945Z,40.50
2017-12-20T08:01:20.526Z,37.73
2017-12-20T08:03:48.513Z,30.50
2017-12-20T08:06:16.118Z,26.00
2017-12-20T08:08:43.689Z,32.20
2017-12-20T08:11:12.111Z,35.07
2017-12-20T08:13:39.709Z,28.93
2017-12-20T08:16:07.330Z,26.60
2017-12-20T08:18:34.941Z,28.63
2017-12-20T08:21:03.636Z,33.67
2017-12-20T08:23:31.973Z,30.97
2017-12-20T08:25:59.570Z,27.53
2017-12-20T08:28:27.957Z,34.90
2017-12-20T08:30:56.297Z,24.57
2017-12-20T08:33:23.935Z,27.97
2017-12-20T08:35:51.529Z,32.93
2017-12-20T08:38:19.577Z,30.63
2017-12-20T08:40:47.150Z,30.97
2017-12-20T08:43:14.738Z,28.97
2017-12-20T08:45:43.238Z,27.73
2017-12-20T08:48:10.834Z,29.77
2017-12-20T08:50:38.445Z,32.63
2017-12-20T08:53:06.023Z,28.47
2017-12-20T08:55:33.634Z,40.37
2017-12-20T08:58:01.225Z,40.23
2017-12-20T09:00:29.198Z,41.27
2017-12-20T09:02:56.762Z,43.40
2017-12-20T09:05:24.362Z,42.40
2017-12-20T09:07:52.015Z,40.20
2017-12-20T09:10:19.585Z,32.13
2017-12-20T09:12:47.219Z,33.70
2017-12-20T09:15:14.762Z,47.37
2017-12-20T09:17:42.633Z,45.20
2017-12-20T09:20:10.219Z,49.83
2017-12-20T09:22:37.830Z,56.47
2017-12-20T09:25:05.468Z,52.73
2017-12-20T09:27:33.059Z,41.90
2017-12-20T09:30:01.522Z,47.47
2017-12-20T09:32:29.173Z,59.63
2017-12-20T09:34:57.232Z,47.23
2017-12-20T09:37:24.828Z,52.93
2017-12-20T09:39:52.401Z,56.70
2017-12-20T09:42:20.017Z,47.70
2017-12-20T09:44:47.679Z,47.47
2017-12-20T09:47:15.298Z,43.87
2017-12-20T09:49:42.879Z,35.67
2017-12-20T09:52:10.588Z,49.83
2017-12-20T09:54:38.174Z,41.80
2017-12-20T09:57:06.198Z,53.67
2017-12-20T09:59:33.793Z,44.53
2017-12-20T10:02:01.386Z,45.20
2017-12-20T10:04:29.012Z,41.00
2017-12-20T10:06:57.361Z,45.37
2017-12-20T10:09:26.516Z,52.43
2017-12-20T10:11:54.090Z,37.23
2017-12-20T10:14:22.642Z,37.50
2017-12-20T10:16:50.258Z,46.47
2017-12-20T10:19:17.849Z,45.93
2017-12-20T10:21:46.259Z,65.50
2017-12-20T10:24:13.814Z,54.10
2017-12-20T10:26:41.600Z,52.80
2017-12-20T10:29:10.524Z,56.07
2017-12-20T10:31:39.377Z,49.80
2017-12-20T10:34:06.966Z,53.17
2017-12-20T10:36:34.780Z,58.10
2017-12-20T10:39:02.575Z,49.60
2017-12-20T10:41:30.171Z,65.97
2017-12-20T10:43:57.834Z,50.53
2017-12-20T10:46:25.409Z,59.80
2017-12-20T10:48:53.769Z,68.23
2017-12-20T10:51:21.340Z,50.20
2017-12-20T10:53:49.983Z,55.87
2017-12-20T10:56:17.572Z,62.33
2017-12-20T10:58:45.157Z,56.60
2017-12-20T11:01:12.870Z,48.50
2017-12-20T11:03:40.437Z,52.90
2017-12-20T11:06:08.016Z,23.90
2017-12-20T11:08:35.638Z,48.53
2017-12-20T11:11:03.225Z,44.93
2017-12-20T11:13:31.209Z,35.73
2017-12-20T11:15:58.779Z,39.47
2017-12-20T11:18:27.141Z,36.10
2017-12-20T11:20:54.806Z,37.90
2017-12-20T11:23:22.629Z,31.90
2017-12-20T11:25:50.380Z,43.57
2017-12-20T11:28:17.996Z,38.30
2017-12-20T11:30:45.926Z,35.00
2017-12-20T11:33:13.531Z,30.23
2017-12-20T11:35:41.120Z,26.27
2017-12-20T11:38:08.763Z,27.30
2017-12-20T11:40:36.339Z,27.90
2017-12-20T11:43:03.957Z,35.07
2017-12-20T11:45:31.546Z,33.97
2017-12-20T11:47:59.427Z,37.80
2017-12-20T11:50:27.020Z,36.87
2017-12-20T11:52:54.634Z,41.37
2017-12-20T11:55:22.282Z,38.27
2017-12-20T11:57:49.857Z,41.07
2017-12-20T12:00:17.473Z,38.60
2017-12-20T12:02:45.060Z,44.63
2017-12-20T12:05:13.196Z,40.10
2017-12-20T12:07:40.810Z,43.70
2017-12-20T12:10:08.387Z,40.17
2017-12-20T12:12:36.026Z,38.30
2017-12-20T12:15:03.609Z,29.80
2017-12-20T12:17:31.710Z,43.03
2017-12-20T12:19:59.290Z,36.57
2017-12-20T12:22:26.848Z,36.27
2017-12-20T12:24:54.498Z,33.20
2017-12-20T12:27:22.093Z,35.17
2017-12-20T12:29:49.719Z,33.50
2017-12-20T12:32:17.307Z,35.93
2017-12-20T12:34:45.957Z,35.10
2017-12-20T12:37:13.535Z,37.17
2017-12-20T12:39:41.116Z,32.30
2017-12-20T12:42:09.534Z,36.60
2017-12-20T12:44:37.127Z,33.67
2017-12-20T12:47:04.759Z,28.23
2017-12-20T12:49:32.374Z,26.20
2017-12-20T12:52:01.433Z,32.27
2017-12-20T12:54:29.030Z,29.10
2017-12-20T12:56:56.628Z,31.47
2017-12-20T12:59:24.618Z,36.37
2017-12-20T13:01:52.338Z,32.33
2017-12-20T13:04:19.973Z,26.90
2017-12-20T13:06:48.302Z,27.33
2017-12-20T13:09:16.283Z,25.10
2017-12-20T13:11:43.908Z,33.90
2017-12-20T13:14:11.458Z,26.13
2017-12-20T13:16:39.836Z,27.03
2017-12-20T13:19:07.402Z,33.60
2017-12-20T13:21:35.043Z,26.47
2017-12-20T13:24:03.419Z,25.73
2017-12-20T13:26:31.352Z,24.27
2017-12-20T13:28:59.086Z,23.87
2017-12-20T13:31:26.700Z,25.13
2017-12-20T13:33:54.339Z,20.90
2017-12-20T13:36:21.942Z,23.77
2017-12-20T13:38:49.565Z,28.17
2017-12-20T13:41:17.159Z,26.40
2017-12-20T13:43:45.590Z,22.03
2017-12-20T13:46:13.176Z,27.83
2017-12-20T13:48:41.056Z,25.50
2017-12-20T13:51:08.654Z,22.80
2017-12-20T13:53:36.257Z,19.57
2017-12-20T13:56:03.862Z,23.20
2017-12-20T13:58:31.481Z,25.83
2017-12-20T14:00:59.350Z,27.13
2017-12-20T14:03:26.949Z,23.20
2017-12-20T14:05:54.524Z,20.60
2017-12-20T14:08:22.153Z,26.43
2017-12-20T14:10:50.534Z,22.40
2017-12-20T14:13:18.941Z,31.00
2017-12-20T14:15:46.573Z,29.67
2017-12-20T14:18:14.520Z,29.80
2017-12-20T14:20:43.358Z,28.13
2017-12-20T14:23:10.962Z,97.77
2017-12-20T14:25:38.623Z,25.70
2017-12-20T14:28:06.255Z,27.77
2017-12-20T14:30:34.726Z,30.20
2017-12-20T14:33:02.372Z,43.13
2017-12-20T14:35:30.418Z,29.60
2017-12-20T14:37:59.049Z,25.40
2017-12-20T14:40:26.793Z,32.43
2017-12-20T14:42:54.459Z,27.93
2017-12-20T14:45:22.071Z,26.20
2017-12-20T14:47:49.731Z,25.50
2017-12-20T14:50:17.326Z,30.20
2017-12-20T14:52:45.506Z,26.00
2017-12-20T14:55:13.112Z,26.23
2017-12-20T14:57:40.714Z,27.07
2017-12-20T15:00:08.345Z,22.20
2017-12-20T15:02:35.929Z,27.67
2017-12-20T15:05:04.344Z,26.83
2017-12-20T15:07:31.902Z,21.30
2017-12-20T15:09:59.922Z,23.80
2017-12-20T15:12:27.553Z,28.00
2017-12-20T15:14:55.161Z,26.00
2017-12-20T15:17:22.884Z,28.37
2017-12-20T15:19:50.541Z,22.43
2017-12-20T15:22:18.162Z,19.60
2017-12-20T15:24:45.748Z,22.07
2017-12-20T15:27:13.749Z,20.63
2017-12-20T15:29:41.387Z,30.73
2017-12-20T15:32:09.085Z,20.83
2017-12-20T15:34:37.511Z,17.93
2017-12-20T15:37:05.117Z,20.73
2017-12-20T15:39:32.889Z,25.27
2017-12-20T15:42:00.670Z,18.20
2017-12-20T15:44:29.230Z,17.23
2017-12-20T15:46:56.842Z,19.50
2017-12-20T15:49:24.726Z,19.10
2017-12-20T15:51:52.297Z,14.13
2017-12-20T15:54:19.891Z,19.73
2017-12-20T15:56:48.300Z,13.57
2017-12-20T15:59:16.446Z,18.67
2017-12-20T16:01:44.079Z,22.80
2017-12-20T16:04:11.665Z,24.27
2017-12-20T16:06:39.403Z,19.73
2017-12-20T16:09:07.037Z,15.77
2017-12-20T16:11:34.692Z,19.43
2017-12-20T16:14:02.569Z,20.60
2017-12-20T16:16:30.553Z,21.00
2017-12-20T16:18:58.170Z,28.07
2017-12-20T16:21:25.779Z,24.60
2017-12-20T16:23:53.467Z,24.83
2017-12-20T16:26:21.074Z,25.80
2017-12-20T16:28:48.697Z,24.90
2017-12-20T16:31:17.117Z,20.47
2017-12-20T16:33:45.027Z,24.47
2017-12-20T16:36:12.642Z,21.73
2017-12-20T16:38:40.270Z,23.17
2017-12-20T16:41:07.912Z,30.17
2017-12-20T16:43:35.494Z,21.60
2017-12-20T16:46:03.890Z,22.67
2017-12-20T16:48:31.486Z,25.03
2017-12-20T16:50:59.668Z,29.07
2017-12-20T16:53:39.137Z,26.37
2017-12-20T16:56:07.073Z,22.70
2017-12-20T16:58:34.634Z,24.67
2017-12-20T17:01:02.222Z,24.10
2017-12-20T17:03:29.862Z,19.83
2017-12-20T17:05:57.440Z,19.87
2017-12-20T17:08:25.088Z,18.37
2017-12-20T17:10:52.674Z,17.30
2017-12-20T17:13:22.404Z,18.17
2017-12-20T17:15:50.036Z,18.10
2017-12-20T17:18:18.895Z,18.90
2017-12-20T17:20:46.671Z,21.53
2017-12-20T17:23:14.294Z,14.97
2017-12-20T17:25:42.187Z,20.10
2017-12-20T17:28:09.797Z,13.23
2017-12-20T17:30:37.414Z,14.03
2017-12-20T17:33:05.062Z,17.27
2017-12-20T17:35:32.648Z,18.30
2017-12-20T17:38:01.503Z,14.53
2017-12-20T17:40:30.380Z,16.57
2017-12-20T17:42:58.281Z,21.80
2017-12-20T17:45:25.873Z,20.77
2017-12-20T17:47:53.457Z,15.70
2017-12-20T17:50:21.181Z,19.90
2017-12-20T17:52:48.794Z,21.73
2017-12-20T17:55:16.427Z,23.63
2017-12-20T17:57:44.756Z,20.30
2017-12-20T18:00:12.798Z,20.50
2017-12-20T18:02:40.653Z,22.83
2017-12-20T18:05:08.285Z,24.97
2017-12-20T18:07:35.943Z,23.90
2017-12-20T18:10:03.536Z,25.23
2017-12-20T18:12:31.407Z,29.43
2017-12-20T18:14:59.039Z,31.47
2017-12-20T18:17:27.096Z,35.83
2017-12-20T18:19:54.724Z,30.20
2017-12-20T18:22:22.339Z,38.30
2017-12-20T18:24:50.728Z,32.27
2017-12-20T18:27:18.329Z,29.43
2017-12-20T18:29:45.966Z,31.70
2017-12-20T18:32:13.569Z,30.17
2017-12-20T18:34:41.214Z,29.13
2017-12-20T18:37:08.811Z,27.90
2017-12-20T18:39:36.777Z,32.43
2017-12-20T18:42:04.362Z,32.23
2017-12-20T18:44:31.963Z,34.57
2017-12-20T18:46:59.590Z,87.23
2017-12-20T18:49:27.366Z,37.83
2017-12-20T18:51:55.030Z,34.37
2017-12-20T18:54:24.040Z,27.70
2017-12-20T18:56:52.767Z,27.63
2017-12-20T18:59:20.408Z,25.60
2017-12-20T19:01:48.384Z,27.83
2017-12-20T19:04:16.126Z,22.50
2017-12-20T19:06:43.928Z,32.33
2017-12-20T19:09:12.321Z,58.30
2017-12-20T19:11:39.919Z,43.57
2017-12-20T19:14:07.551Z,50.63
2017-12-20T19:16:35.153Z,36.67
2017-12-20T19:19:03.181Z,32.50
2017-12-20T19:21:31.047Z,27.80
2017-12-20T19:23:58.663Z,31.27
2017-12-20T19:26:26.349Z,30.57
2017-12-20T19:28:53.953Z,26.20
2017-12-20T19:31:21.579Z,29.30
2017-12-20T19:33:49.958Z,22.00
2017-12-20T19:36:17.886Z,33.73
2017-12-20T19:38:45.474Z,24.37
2017-12-20T19:41:13.250Z,21.00
2017-12-20T19:43:41.649Z,22.73
2017-12-20T19:46:09.248Z,19.77
2017-12-20T19:48:36.891Z,23.30
2017-12-20T19:51:04.486Z,21.87
2017-12-20T19:53:32.415Z,18.97
2017-12-20T19:56:00.042Z,19.67
2017-12-20T19:58:28.380Z,18.67
2017-12-20T20:00:55.998Z,19.40
2017-12-20T20:03:23.607Z,19.87
2017-12-20T20:05:51.219Z,18.97
2017-12-20T20:08:18.949Z,19.97
2017-12-20T20:10:46.849Z,19.50
2017-12-20T20:13:14.432Z,22.63
2017-12-20T20:15:42.015Z,21.67
2017-12-20T20:18:10.769Z,22.90
2017-12-20T20:20:38.722Z,25.57
2017-12-20T20:23:06.341Z,24.67
2017-12-20T20:25:34.734Z,16.90
2017-12-20T20:28:02.677Z,22.60
2017-12-20T20:30:30.284Z,19.07
2017-12-20T20:32:57.903Z,15.80
2017-12-20T20:35:25.563Z,18.77
2017-12-20T20:37:53.146Z,21.33
2017-12-20T20:40:20.790Z,22.80
2017-12-20T20:42:48.426Z,18.53
2017-12-20T20:45:16.052Z,19.50
2017-12-20T20:47:43.609Z,26.00
2017-12-20T20:50:11.501Z,18.73
2017-12-20T20:52:39.094Z,17.90
2017-12-20T20:55:06.693Z,14.70
2017-12-20T20:57:35.257Z,16.07
2017-12-20T21:00:02.906Z,14.30
2017-12-20T21:02:30.711Z,14.20
2017-12-20T21:04:58.316Z,15.23
2017-12-20T21:07:25.983Z,11.73
2017-12-20T21:09:53.583Z,16.67
2017-12-20T21:12:21.510Z,13.77
2017-12-20T21:14:49.081Z,13.77
2017-12-20T21:17:16.670Z,11.83
2017-12-20T21:19:45.063Z,9.87
2017-12-20T21:22:12.641Z,13.23
2017-12-20T21:24:40.285Z,18.40
2017-12-20T21:27:07.904Z,11.80
2017-12-20T21:29:35.961Z,11.33
2017-12-20T21:32:04.079Z,11.53
2017-12-20T21:34:31.680Z,12.30
2017-12-20T21:36:59.511Z,11.93
2017-12-20T21:39:27.854Z,10.50
2017-12-20T21:41:55.521Z,12.20
2017-12-20T21:44:23.918Z,13.47
2017-12-20T21:46:51.862Z,14.47
2017-12-20T21:49:19.451Z,15.93
2017-12-20T21:51:47.052Z,12.77
2017-12-20T21:54:14.723Z,12.30
2017-12-20T21:56:42.300Z,14.20
2017-12-20T21:59:09.931Z,12.33
2017-12-20T22:01:37.511Z,14.37
2017-12-20T22:04:05.139Z,13.57
2017-12-20T22:06:32.742Z,10.60
2017-12-20T22:09:00.803Z,12.30
2017-12-20T22:11:28.506Z,15.50
2017-12-20T22:13:56.863Z,15.30
2017-12-20T22:16:24.478Z,13.47
2017-12-20T22:18:52.103Z,13.87
2017-12-20T22:21:20.483Z,12.17
2017-12-20T22:23:48.058Z,13.67
2017-12-20T22:26:15.673Z,12.57
2017-12-20T22:28:43.249Z,15.13
2017-12-20T22:31:11.437Z,13.47
2017-12-20T22:33:39.831Z,12.70
2017-12-20T22:36:07.399Z,9.93
2017-12-20T22:38:35.037Z,12.97
2017-12-20T22:41:02.618Z,13.97
2017-12-20T22:43:30.241Z,11.60
2017-12-20T22:45:57.834Z,11.97
2017-12-20T22:48:25.849Z,12.20
2017-12-20T22:50:53.437Z,12.90
2017-12-20T22:53:21.242Z,11.53
2017-12-20T22:55:49.024Z,15.37
2017-12-20T22:58:16.625Z,10.57
2017-12-20T23:00:45.001Z,13.27
2017-12-20T23:03:13.378Z,11.00
2017-12-20T23:05:41.311Z,11.50
2017-12-20T23:08:08.964Z,11.40
2017-12-20T23:10:36.593Z,11.27
2017-12-20T23:13:04.235Z,10.47
2017-12-20T23:15:32.578Z,14.70
2017-12-20T23:18:00.277Z,10.80
2017-12-20T23:20:27.976Z,11.37
2017-12-20T23:22:55.596Z,8.60
2017-12-20T23:25:23.187Z,11.70
2017-12-20T23:27:51.055Z,11.07
2017-12-20T23:30:18.628Z,12.83
2017-12-20T23:32:46.218Z,10.87
2017-12-20T23:35:13.824Z,8.07
2017-12-20T23:37:41.397Z,12.37
2017-12-20T23:40:09.071Z,11.40
2017-12-20T23:42:36.650Z,13.27
2017-12-20T23:45:04.606Z,11.63
2017-12-20T23:47:32.360Z,10.20
2017-12-20T23:49:59.969Z,10.90
2017-12-20T23:52:27.605Z,11.00
2017-12-20T23:54:55.196Z,11.30
2017-12-20T23:57:23.612Z,11.40
2017-12-20T23:59:52.131Z,11.73
